createdAt,value
2023-09-26T00:01:05.573Z,11.32
2023-09-26T00:09:11.375Z,10.85
2023-09-26T00:17:19.436Z,12.30
2023-09-26T00:25:25.254Z,12.38
2023-09-26T00:33:33.675Z,15.50
2023-09-26T00:41:40.010Z,16.17
2023-09-26T00:49:48.299Z,11.20
2023-09-26T00:57:54.389Z,11.30
2023-09-26T01:06:04.465Z,15.48
2023-09-26T01:14:10.131Z,12.63
2023-09-26T01:22:21.112Z,14.25
2023-09-26T01:30:29.377Z,11.98
2023-09-26T01:38:35.685Z,11.13
2023-09-26T01:46:43.901Z,15.32
2023-09-26T01:54:49.399Z,15.32
2023-09-26T02:02:57.581Z,12.85
2023-09-26T02:11:03.035Z,15.07
2023-09-26T02:19:12.098Z,14.73
2023-09-26T02:27:17.631Z,14.80
2023-09-26T02:35:25.698Z,15.55
2023-09-26T02:43:31.177Z,17.73
2023-09-26T02:51:39.246Z,15.48
2023-09-26T02:59:44.722Z,18.65
2023-09-26T03:07:54.270Z,21.05
2023-09-26T03:15:59.911Z,17.83
2023-09-26T03:24:11.743Z,13.95
2023-09-26T03:32:17.176Z,14.98
2023-09-26T03:40:25.313Z,12.70
2023-09-26T03:48:30.887Z,12.85
2023-09-26T03:56:38.900Z,14.75
2023-09-26T04:04:44.379Z,11.93
2023-09-26T04:12:52.591Z,14.27
2023-09-26T04:20:58.118Z,12.10
2023-09-26T04:29:06.480Z,13.48
2023-09-26T04:37:11.953Z,16.83
2023-09-26T04:45:20.275Z,15.52
2023-09-26T04:53:25.799Z,16.05
2023-09-26T05:01:33.891Z,22.85
2023-09-26T05:09:39.390Z,13.90
2023-09-26T05:17:51.672Z,14.88
2023-09-26T05:25:57.172Z,19.10
2023-09-26T05:34:05.260Z,14.38
2023-09-26T05:42:11.569Z,13.02
2023-09-26T05:50:19.621Z,14.65
2023-09-26T05:58:25.100Z,15.30
2023-09-26T06:06:33.233Z,12.75
2023-09-26T06:14:38.839Z,11.55
2023-09-26T06:22:46.938Z,12.40
2023-09-26T06:30:52.515Z,15.25
2023-09-26T06:39:04.308Z,17.60
2023-09-26T06:47:09.862Z,10.82
2023-09-26T06:55:18.095Z,9.77
2023-09-26T07:03:23.573Z,20.65
2023-09-26T07:11:31.596Z,8.40
2023-09-26T07:19:37.166Z,9.85
2023-09-26T07:27:47.383Z,7.35
2023-09-26T07:35:55.534Z,12.00
2023-09-26T08:18:25.482Z,18.77
2023-09-26T08:26:30.964Z,12.27
2023-09-26T08:34:38.967Z,9.60
2023-09-26T08:42:47.121Z,10.60
2023-09-26T08:50:55.559Z,13.05
2023-09-26T08:59:01.807Z,9.73
2023-09-26T09:07:09.969Z,10.65
2023-09-26T09:15:28.345Z,11.40
2023-09-26T09:23:49.925Z,12.50
2023-09-26T09:31:56.069Z,12.67
2023-09-26T09:40:06.128Z,12.57
2023-09-26T09:48:13.989Z,11.65
2023-09-26T09:56:25.841Z,11.70
2023-09-26T10:04:33.198Z,7.47
2023-09-26T10:12:51.121Z,5.23
2023-09-26T10:21:07.697Z,7.65
2023-09-26T10:29:21.975Z,8.45
2023-09-26T10:37:31.615Z,9.25
2023-09-26T10:45:39.816Z,5.57
2023-09-26T10:53:45.590Z,9.25
2023-09-26T11:01:57.779Z,9.67
2023-09-26T11:10:05.071Z,13.27
2023-09-26T11:18:17.021Z,7.07
2023-09-26T11:26:22.525Z,9.05
2023-09-26T11:34:31.096Z,8.35
2023-09-26T11:42:45.152Z,12.32
2023-09-26T11:50:54.142Z,10.45
2023-09-26T11:59:01.222Z,8.97
2023-09-26T12:07:09.719Z,8.98
2023-09-26T12:15:26.033Z,11.80
2023-09-26T12:23:34.133Z,10.40
2023-09-26T12:31:39.607Z,11.32
2023-09-26T12:39:47.731Z,15.93
2023-09-26T12:47:53.420Z,9.82
2023-09-26T12:56:01.654Z,12.13
2023-09-26T13:04:07.930Z,14.43
2023-09-26T13:12:16.217Z,8.27
2023-09-26T13:20:21.814Z,10.48
2023-09-26T13:28:29.978Z,11.13
2023-09-26T13:36:35.746Z,13.73
2023-09-26T13:44:43.949Z,11.20
2023-09-26T13:52:49.436Z,10.30
2023-09-26T14:00:57.980Z,9.23
2023-09-26T14:09:04.098Z,9.65
2023-09-26T14:17:12.297Z,10.95
2023-09-26T14:25:18.264Z,13.02
2023-09-26T14:33:27.518Z,9.23
2023-09-26T14:41:33.114Z,8.52
2023-09-26T14:49:41.460Z,12.60
2023-09-26T14:57:46.917Z,10.65
2023-09-26T15:05:55.133Z,11.30
2023-09-26T15:14:00.631Z,13.20
2023-09-26T15:22:08.715Z,11.70
2023-09-26T15:30:15.840Z,9.73
2023-09-26T15:38:24.132Z,12.07
2023-09-26T15:46:29.667Z,12.38
2023-09-26T15:54:37.832Z,12.07
2023-09-26T16:02:43.441Z,12.13
2023-09-26T16:10:51.723Z,9.02
2023-09-26T16:18:58.673Z,15.20
2023-09-26T16:27:07.028Z,11.77
2023-09-26T16:35:13.192Z,11.18
2023-09-26T16:43:22.819Z,9.35
2023-09-26T16:51:28.448Z,13.27
2023-09-26T16:59:36.604Z,10.55
2023-09-26T17:07:42.057Z,15.25
2023-09-26T17:15:50.312Z,13.90
2023-09-26T17:23:55.827Z,15.90
2023-09-26T17:32:04.586Z,8.88
2023-09-26T17:40:13.036Z,13.40
2023-09-26T17:48:21.097Z,15.93
2023-09-26T17:56:26.498Z,18.38
2023-09-26T18:04:34.579Z,18.42
2023-09-26T18:12:40.768Z,21.80
2023-09-26T18:20:49.900Z,21.30
2023-09-26T18:28:55.397Z,17.67
2023-09-26T18:37:03.557Z,25.58
2023-09-26T18:45:10.437Z,19.17
2023-09-26T18:53:18.620Z,16.15
2023-09-26T20:38:17.321Z,19.65
2023-09-26T20:46:22.930Z,19.60
2023-09-26T20:54:32.748Z,16.00
2023-09-26T21:02:38.399Z,21.02
2023-09-26T21:10:46.605Z,20.88
2023-09-26T21:18:53.240Z,18.02
2023-09-26T21:27:01.573Z,22.85
2023-09-26T21:35:18.837Z,23.45
2023-09-26T21:43:26.978Z,16.75
2023-09-26T21:51:32.704Z,16.33
2023-09-26T21:59:40.742Z,14.48
2023-09-26T22:07:48.279Z,18.75
2023-09-26T22:15:57.024Z,16.20
2023-09-26T22:24:02.700Z,19.00
2023-09-26T22:32:11.092Z,19.23
2023-09-26T22:40:16.706Z,20.85
2023-09-26T22:48:24.822Z,15.30
2023-09-26T22:56:30.752Z,19.08
2023-09-26T23:04:39.138Z,14.60
2023-09-26T23:12:44.579Z,19.58
2023-09-26T23:20:52.718Z,22.40
2023-09-26T23:28:59.320Z,18.05
2023-09-26T23:37:07.559Z,23.08
2023-09-26T23:45:14.676Z,17.20
2023-09-26T23:53:22.931Z,21.70
